createdAt,value
2023-03-24T06:22:44.194Z,10.80
2023-03-24T06:25:16.825Z,11.00
2023-03-24T06:27:52.528Z,11.00
2023-03-24T06:30:23.073Z,11.20
2023-03-24T06:32:51.127Z,11.40
2023-03-24T06:35:19.526Z,11.60
2023-03-24T06:37:51.855Z,11.70
2023-03-24T06:40:19.601Z,11.80
2023-03-24T06:42:51.531Z,11.80
2023-03-24T06:45:18.545Z,11.90
2023-03-24T06:47:47.519Z,11.90
2023-03-24T06:50:14.762Z,11.80
2023-03-24T06:52:41.833Z,11.90
2023-03-24T06:55:11.027Z,11.90
2023-03-24T06:57:37.861Z,11.90
2023-03-24T07:00:23.339Z,12.00
2023-03-24T07:03:03.411Z,12.10
2023-03-24T07:05:30.469Z,12.00
2023-03-24T07:10:39.683Z,12.00
2023-03-24T07:13:07.432Z,12.00
2023-03-24T07:15:36.240Z,12.10
2023-03-24T07:18:04.098Z,12.20
2023-03-24T07:20:53.733Z,12.30
2023-03-24T07:23:22.253Z,12.40
2023-03-24T07:25:56.755Z,12.30
2023-03-24T07:28:43.525Z,12.30
2023-03-24T07:31:10.690Z,12.30
2023-03-24T07:33:38.404Z,12.40
2023-03-24T07:36:07.464Z,12.50
2023-03-24T07:38:36.319Z,12.70
2023-03-24T07:41:08.137Z,12.70
2023-03-24T07:43:39.062Z,12.70
2023-03-24T07:46:19.902Z,12.80
2023-03-24T07:48:47.512Z,12.80
2023-03-24T07:51:17.984Z,12.90
2023-03-24T07:54:08.793Z,12.90
2023-03-24T07:56:41.894Z,12.90
2023-03-24T07:59:10.661Z,13.00
2023-03-24T08:02:03.742Z,13.00
2023-03-24T08:04:53.546Z,13.10
2023-03-24T08:07:40.188Z,13.10
2023-03-24T08:10:14.013Z,13.20
2023-03-24T08:12:41.456Z,13.10
2023-03-24T08:15:09.412Z,13.10
2023-03-24T08:17:36.736Z,13.10
2023-03-24T08:20:08.243Z,13.10
2023-03-24T08:22:36.909Z,13.20
2023-03-24T08:25:03.692Z,13.20
2023-03-24T08:27:30.432Z,13.10
2023-03-24T08:29:57.253Z,13.30
2023-03-24T08:32:24.420Z,13.40
2023-03-24T08:34:51.308Z,13.70
2023-03-24T08:37:18.384Z,13.90
2023-03-24T08:39:45.160Z,13.90
2023-03-24T08:42:11.899Z,14.00
2023-03-24T08:44:38.805Z,14.10
2023-03-24T08:47:05.810Z,14.30
2023-03-24T08:49:32.599Z,14.30
2023-03-24T08:51:59.391Z,14.50
2023-03-24T08:54:26.293Z,14.50
2023-03-24T08:56:53.415Z,14.60
2023-03-24T08:59:20.616Z,14.60
2023-03-24T09:01:47.448Z,14.50
2023-03-24T09:04:14.350Z,14.50
2023-03-24T09:06:41.572Z,14.40
2023-03-24T09:09:08.282Z,14.30
2023-03-24T09:11:36.715Z,14.20
2023-03-24T09:14:04.857Z,14.10
2023-03-24T09:16:31.790Z,14.10
2023-03-24T09:18:58.697Z,13.90
2023-03-24T09:21:25.527Z,14.00
2023-03-24T09:23:52.270Z,14.00
2023-03-24T09:26:19.043Z,14.00
2023-03-24T09:28:45.814Z,14.10
2023-03-24T09:31:12.750Z,14.30
2023-03-24T09:33:39.526Z,14.40
2023-03-24T09:36:06.890Z,14.20
2023-03-24T09:38:35.077Z,14.00
2023-03-24T09:41:03.464Z,14.00
2023-03-24T09:43:43.857Z,14.20
2023-03-24T09:46:28.060Z,14.50
2023-03-24T09:48:58.310Z,14.70
2023-03-24T09:51:34.943Z,14.80
2023-03-24T09:54:07.619Z,14.70
2023-03-24T09:56:38.002Z,14.90
2023-03-24T09:59:07.716Z,15.20
2023-03-24T10:01:36.293Z,15.60
2023-03-24T10:04:05.154Z,15.80
2023-03-24T10:06:43.871Z,16.00
2023-03-24T10:09:24.161Z,15.90
2023-03-24T10:11:50.897Z,15.90
2023-03-24T10:14:45.520Z,16.00
2023-03-24T10:17:43.310Z,15.90
2023-03-24T10:20:24.094Z,15.90
2023-03-24T10:23:10.118Z,15.80
2023-03-24T10:25:47.946Z,15.40
2023-03-24T10:28:26.497Z,15.00
2023-03-24T10:30:56.213Z,14.90
2023-03-24T10:33:23.088Z,14.60
2023-03-24T10:36:02.445Z,14.40
2023-03-24T10:38:29.693Z,14.60
2023-03-24T10:40:56.969Z,14.70
2023-03-24T10:43:25.670Z,14.60
2023-03-24T10:45:57.174Z,14.40
2023-03-24T10:48:44.737Z,14.20
2023-03-24T10:51:16.456Z,13.70
2023-03-24T10:53:47.759Z,13.30
2023-03-24T10:56:36.620Z,12.90
2023-03-24T10:59:06.422Z,12.50
2023-03-24T11:01:35.186Z,12.10
2023-03-24T11:04:07.180Z,12.10
2023-03-24T11:06:34.430Z,12.00
2023-03-24T11:09:19.707Z,12.00
2023-03-24T11:11:47.137Z,12.00
2023-03-24T11:14:25.292Z,12.00
2023-03-24T11:16:55.615Z,12.10
2023-03-24T11:19:24.556Z,12.30
2023-03-24T11:21:57.628Z,12.40
2023-03-24T11:24:25.635Z,12.30
2023-03-24T11:27:03.282Z,12.40
2023-03-24T11:29:33.506Z,12.20
2023-03-24T11:32:03.571Z,12.20
2023-03-24T11:34:34.405Z,12.10
2023-03-24T11:37:08.205Z,12.10
2023-03-24T11:39:35.305Z,12.10
2023-03-24T11:42:11.111Z,12.30
2023-03-24T11:44:38.016Z,12.50
2023-03-24T11:47:13.373Z,12.70
2023-03-24T11:49:48.379Z,13.00
2023-03-24T11:52:42.903Z,13.30
2023-03-24T11:55:16.386Z,13.60
2023-03-24T11:57:59.231Z,13.90
2023-03-24T12:00:34.945Z,14.10
2023-03-24T12:03:24.069Z,14.30
2023-03-24T12:06:08.446Z,14.40
2023-03-24T12:08:40.254Z,14.50
2023-03-24T12:11:21.184Z,14.50
2023-03-24T12:13:50.500Z,14.40
2023-03-24T12:16:54.704Z,14.40
2023-03-24T12:19:24.531Z,14.10
2023-03-24T12:22:16.015Z,14.00
2023-03-24T12:25:24.374Z,14.20
2023-03-24T12:28:03.499Z,14.70
2023-03-24T12:31:01.944Z,15.00
2023-03-24T12:33:56.734Z,15.00
2023-03-24T12:36:49.443Z,14.80
2023-03-24T12:39:33.370Z,14.70
2023-03-24T12:42:12.543Z,14.60
2023-03-24T12:45:01.456Z,14.90
2023-03-24T12:47:51.423Z,15.10
2023-03-24T12:50:27.386Z,15.20
2023-03-24T12:53:08.225Z,15.30
2023-03-24T12:56:04.064Z,15.60
2023-03-24T12:58:50.417Z,15.60
2023-03-24T13:01:32.892Z,15.50
2023-03-24T13:04:05.589Z,15.30
2023-03-24T13:06:54.628Z,15.20
2023-03-24T13:09:34.192Z,15.20
2023-03-24T13:12:12.081Z,15.10
2023-03-24T13:15:00.118Z,14.90
2023-03-24T13:17:49.020Z,14.80
2023-03-24T13:20:33.914Z,14.60
2023-03-24T13:23:32.570Z,14.60
2023-03-24T13:26:18.555Z,14.50
2023-03-24T13:29:03.666Z,14.30
2023-03-24T13:31:52.691Z,14.30
2023-03-24T13:34:37.908Z,14.20
2023-03-24T13:37:22.323Z,14.10
2023-03-24T13:39:55.240Z,14.20
2023-03-24T13:42:31.818Z,14.30
2023-03-24T13:45:04.494Z,14.30
2023-03-24T13:47:57.856Z,14.30
2023-03-24T13:50:26.041Z,14.40
2023-03-24T13:52:52.890Z,14.50
2023-03-24T13:55:27.361Z,14.30
2023-03-24T13:57:59.399Z,14.20
2023-03-24T14:00:27.700Z,14.30
2023-03-24T14:03:15.441Z,14.60
2023-03-24T14:05:58.643Z,14.70
2023-03-24T14:08:43.756Z,14.80
2023-03-24T14:11:41.326Z,14.90
2023-03-24T14:14:20.943Z,15.20
2023-03-24T14:17:05.719Z,15.40
2023-03-24T14:19:39.100Z,15.50
2023-03-24T14:22:14.068Z,15.40
2023-03-24T14:24:43.533Z,15.20
2023-03-24T14:27:38.237Z,15.10
2023-03-24T14:30:24.925Z,15.10
2023-03-24T14:33:02.514Z,15.00
2023-03-24T14:35:41.873Z,15.20
2023-03-24T14:38:15.389Z,15.20
2023-03-24T14:40:50.908Z,15.20
2023-03-24T14:43:29.223Z,15.00
2023-03-24T14:46:02.158Z,14.90
2023-03-24T14:48:36.407Z,15.10
2023-03-24T14:51:41.343Z,15.50
2023-03-24T14:54:36.876Z,15.30
2023-03-24T14:57:05.970Z,15.40
2023-03-24T14:59:39.867Z,15.60
2023-03-24T15:02:34.477Z,15.70
2023-03-24T15:05:24.842Z,15.60
2023-03-24T15:08:21.388Z,15.60
2023-03-24T15:10:53.838Z,15.70
2023-03-24T15:13:41.812Z,15.90
2023-03-24T15:16:11.663Z,15.80
2023-03-24T15:21:34.969Z,15.70
2023-03-24T15:24:03.907Z,15.50
2023-03-24T15:26:31.866Z,15.40
2023-03-24T15:29:06.005Z,15.30
2023-03-24T15:31:34.251Z,15.30
2023-03-24T15:34:06.627Z,15.30
2023-03-24T15:36:44.974Z,15.30
2023-03-24T15:39:19.815Z,15.30
2023-03-24T15:41:51.068Z,15.10
2023-03-24T15:44:20.761Z,15.00
2023-03-24T15:46:48.713Z,14.90
2023-03-24T15:49:25.455Z,15.60
2023-03-24T15:51:58.215Z,17.30
2023-03-24T15:54:39.064Z,18.70
2023-03-24T15:57:23.204Z,18.90
2023-03-24T15:59:56.223Z,18.30
2023-03-24T16:02:29.790Z,17.60
2023-03-24T16:05:09.932Z,16.90
2023-03-24T16:07:40.789Z,16.40
2023-03-24T16:10:25.294Z,16.00
2023-03-24T16:12:52.067Z,15.70
2023-03-24T16:15:18.756Z,15.50
2023-03-24T16:17:46.285Z,15.40
2023-03-24T16:20:20.829Z,15.50
2023-03-24T16:22:47.666Z,15.60
2023-03-24T16:25:16.127Z,15.60
2023-03-24T16:27:42.883Z,15.60
2023-03-24T16:30:24.919Z,15.60
2023-03-24T16:32:51.886Z,15.50
2023-03-24T16:35:20.000Z,15.30
2023-03-24T16:37:47.227Z,15.20
2023-03-24T16:40:33.924Z,15.20
2023-03-24T16:43:02.207Z,15.10
2023-03-24T16:45:30.484Z,15.00
2023-03-24T16:47:58.006Z,15.00
2023-03-24T16:50:38.334Z,14.90
2023-03-24T16:53:05.373Z,14.80
2023-03-24T16:55:34.045Z,14.70
2023-03-24T16:58:00.987Z,14.60
2023-03-24T17:00:29.974Z,14.60
2023-03-24T17:02:59.785Z,14.40
2023-03-24T17:05:30.920Z,14.40
2023-03-24T17:07:58.065Z,14.40
2023-03-24T17:10:26.411Z,14.30
2023-03-24T17:12:55.232Z,14.20
2023-03-24T17:15:27.866Z,14.20
2023-03-24T17:17:55.627Z,14.10
2023-03-24T17:20:24.323Z,14.00
2023-03-24T17:22:54.220Z,14.00
2023-03-24T17:25:28.994Z,14.00
2023-03-24T17:27:57.339Z,14.00
2023-03-24T17:30:26.624Z,14.00
2023-03-24T17:32:54.712Z,13.90
2023-03-24T17:35:24.046Z,13.70
2023-03-24T17:37:54.037Z,13.60
2023-03-24T17:40:22.831Z,13.50
2023-03-24T17:42:50.077Z,13.40
2023-03-24T17:45:18.500Z,13.30
2023-03-24T17:47:46.270Z,13.30
2023-03-24T17:50:14.001Z,13.30
2023-03-24T17:52:44.384Z,13.20
2023-03-24T17:55:15.429Z,13.10
2023-03-24T17:57:44.466Z,13.10
2023-03-24T18:00:13.191Z,13.10
2023-03-24T18:02:41.768Z,13.00
2023-03-24T18:05:11.844Z,13.00
2023-03-24T18:07:40.176Z,13.00
2023-03-24T18:10:08.246Z,12.90
2023-03-24T18:12:36.690Z,12.80
2023-03-24T18:15:04.682Z,12.80
2023-03-24T18:17:31.524Z,12.70
2023-03-24T18:20:00.669Z,12.60
2023-03-24T18:22:27.716Z,12.60
2023-03-24T18:24:54.695Z,12.50
2023-03-24T18:27:21.613Z,12.40
2023-03-24T18:29:48.455Z,12.30
2023-03-24T18:32:16.310Z,12.30
2023-03-24T18:34:44.695Z,12.30
2023-03-24T18:37:12.169Z,12.30
2023-03-24T18:39:40.503Z,12.30
2023-03-24T18:42:07.972Z,12.30
2023-03-24T18:44:35.126Z,12.20
2023-03-24T18:47:02.157Z,12.10
2023-03-24T18:49:29.138Z,12.10
2023-03-24T18:51:56.083Z,12.00
2023-03-24T18:54:23.109Z,11.90
2023-03-24T18:56:50.005Z,11.80
2023-03-24T18:59:16.753Z,11.80
2023-03-24T19:01:47.176Z,11.70
2023-03-24T19:04:16.081Z,11.60
2023-03-24T19:06:44.186Z,11.60
2023-03-24T19:09:12.607Z,11.60
2023-03-24T19:11:42.756Z,11.60
2023-03-24T19:14:10.484Z,11.70
2023-03-24T19:16:37.684Z,11.70
2023-03-24T19:19:04.651Z,11.70
2023-03-24T19:21:31.318Z,11.70
2023-03-24T19:23:59.288Z,11.60
2023-03-24T19:26:26.176Z,11.70
2023-03-24T19:28:53.069Z,11.60
2023-03-24T19:31:20.331Z,11.50
2023-03-24T19:33:47.722Z,11.50
2023-03-24T19:36:15.425Z,11.50
2023-03-24T19:38:42.314Z,11.60
2023-03-24T19:41:12.154Z,11.60
2023-03-24T19:43:39.147Z,11.70
2023-03-24T19:46:06.516Z,11.70
2023-03-24T19:48:34.151Z,11.70
2023-03-24T19:51:00.880Z,11.80
2023-03-24T19:53:28.772Z,11.70
2023-03-24T19:55:57.378Z,11.70
2023-03-24T19:58:24.702Z,11.70
2023-03-24T20:00:53.196Z,11.80
2023-03-24T20:03:20.538Z,11.80
2023-03-24T20:05:47.710Z,11.70
2023-03-24T20:08:15.338Z,11.70
2023-03-24T20:10:42.226Z,11.70
2023-03-24T20:13:09.837Z,11.70
2023-03-24T20:15:36.746Z,11.70
2023-03-24T20:18:04.061Z,11.70
2023-03-24T20:20:31.557Z,11.70
2023-03-24T20:22:58.318Z,11.70
2023-03-24T20:25:25.324Z,11.70
2023-03-24T20:27:52.253Z,11.60
2023-03-24T20:30:20.588Z,11.60
2023-03-24T20:32:48.762Z,11.50
2023-03-24T20:35:15.848Z,11.40
2023-03-24T20:37:42.732Z,11.40
2023-03-24T20:40:10.030Z,11.40
2023-03-24T20:42:37.528Z,11.40
2023-03-24T20:45:06.515Z,11.30
2023-03-24T20:47:33.446Z,11.30
2023-03-24T20:50:01.152Z,11.20
2023-03-24T20:52:28.956Z,11.20
2023-03-24T20:54:56.462Z,11.20
2023-03-24T20:57:25.596Z,11.20
2023-03-24T20:59:52.709Z,11.10
2023-03-24T21:02:23.882Z,11.10
2023-03-24T21:04:50.816Z,11.00
2023-03-24T21:07:18.827Z,11.00
2023-03-24T21:09:45.855Z,11.00
2023-03-24T21:12:12.640Z,11.10
2023-03-24T21:14:41.445Z,11.10
2023-03-24T21:17:08.146Z,11.10
2023-03-24T21:19:37.075Z,11.10
2023-03-24T21:22:03.937Z,11.10
2023-03-24T21:24:30.791Z,11.10
2023-03-24T21:26:57.960Z,11.10
2023-03-24T21:29:26.417Z,11.10
2023-03-24T21:31:53.099Z,11.10
2023-03-24T21:34:19.893Z,11.10
2023-03-24T21:36:49.331Z,11.10
2023-03-24T21:39:16.529Z,11.10
2023-03-24T21:41:43.308Z,11.10
2023-03-24T21:44:10.388Z,11.10
2023-03-24T21:46:38.479Z,11.00
2023-03-24T21:49:05.358Z,11.00
2023-03-24T21:51:34.037Z,11.00
2023-03-24T21:54:04.081Z,11.00
2023-03-24T21:56:32.964Z,11.00
2023-03-24T21:59:00.598Z,11.00
2023-03-24T22:01:27.822Z,10.90
2023-03-24T22:03:55.682Z,10.90
2023-03-24T22:06:22.977Z,10.90
2023-03-24T22:08:52.894Z,10.90
2023-03-24T22:11:19.841Z,10.90
2023-03-24T22:13:46.880Z,10.90
2023-03-24T22:16:14.207Z,11.00
2023-03-24T22:18:41.325Z,10.90
2023-03-24T22:21:09.822Z,11.00
2023-03-24T22:23:39.331Z,11.00
2023-03-24T22:26:09.771Z,11.00
2023-03-24T22:28:37.285Z,11.00
2023-03-24T22:31:07.315Z,11.00
2023-03-24T22:33:34.683Z,11.00
2023-03-24T22:36:02.162Z,11.00
2023-03-24T22:38:29.783Z,11.00
2023-03-24T22:40:58.648Z,10.90
2023-03-24T22:43:28.068Z,10.90
2023-03-24T22:45:55.321Z,10.80
2023-03-24T22:48:22.525Z,10.70
2023-03-24T22:50:49.906Z,10.70
2023-03-24T22:53:17.293Z,10.80
2023-03-24T22:55:44.782Z,10.80
2023-03-24T22:58:13.300Z,10.80
2023-03-24T23:00:41.617Z,10.80
2023-03-24T23:03:08.424Z,10.90
2023-03-24T23:05:43.368Z,10.80
2023-03-24T23:08:11.442Z,10.80
2023-03-24T23:10:40.233Z,10.80
2023-03-24T23:13:07.276Z,10.80
2023-03-24T23:15:34.059Z,10.80
2023-03-24T23:18:00.852Z,10.80
2023-03-24T23:20:28.241Z,10.80
2023-03-24T23:22:55.694Z,10.80
2023-03-24T23:25:22.980Z,10.80
2023-03-24T23:27:50.292Z,10.80
2023-03-24T23:30:17.974Z,10.90
2023-03-24T23:32:46.617Z,10.80
2023-03-24T23:35:14.360Z,10.80
2023-03-24T23:37:41.272Z,10.70
2023-03-24T23:40:12.790Z,10.70
2023-03-24T23:42:44.617Z,10.70
2023-03-24T23:45:14.553Z,10.80
2023-03-24T23:47:43.885Z,10.70
2023-03-24T23:50:12.238Z,10.70
2023-03-24T23:52:43.879Z,10.70
2023-03-24T23:55:12.487Z,10.80
2023-03-24T23:57:41.494Z,10.80
